sensor_id;sensor_type;location;lat;lon;timestamp;temperature;humidity
420;DHT22;42600;54.408;13.016;2024-02-21T00:02:18;7.60;92.70
420;DHT22;42600;54.408;13.016;2024-02-21T00:04:45;7.60;92.70
420;DHT22;42600;54.408;13.016;2024-02-21T00:07:11;7.60;92.70
420;DHT22;42600;54.408;13.016;2024-02-21T00:09:39;7.60;92.70
420;DHT22;42600;54.408;13.016;2024-02-21T00:12:08;7.60;92.70
420;DHT22;42600;54.408;13.016;2024-02-21T00:14:34;7.60;92.70
420;DHT22;42600;54.408;13.016;2024-02-21T00:17:01;7.60;92.70
420;DHT22;42600;54.408;13.016;2024-02-21T00:19:27;7.60;92.70
420;DHT22;42600;54.408;13.016;2024-02-21T00:21:54;7.60;92.70
420;DHT22;42600;54.408;13.016;2024-02-21T00:24:20;7.60;92.70
420;DHT22;42600;54.408;13.016;2024-02-21T00:26:51;7.60;92.70
420;DHT22;42600;54.408;13.016;2024-02-21T00:29:18;7.60;92.70
420;DHT22;42600;54.408;13.016;2024-02-21T00:31:45;7.60;92.70
420;DHT22;42600;54.408;13.016;2024-02-21T00:34:11;7.60;92.70
420;DHT22;42600;54.408;13.016;2024-02-21T00:36:38;7.60;92.70
420;DHT22;42600;54.408;13.016;2024-02-21T00:39:05;7.60;92.70
420;DHT22;42600;54.408;13.016;2024-02-21T00:41:31;7.60;92.70
420;DHT22;42600;54.408;13.016;2024-02-21T00:43:59;7.60;92.70
420;DHT22;42600;54.408;13.016;2024-02-21T00:46:26;7.60;92.70
420;DHT22;42600;54.408;13.016;2024-02-21T00:48:53;7.60;92.70
420;DHT22;42600;54.408;13.016;2024-02-21T00:51:19;7.60;92.70
420;DHT22;42600;54.408;13.016;2024-02-21T00:53:46;7.60;92.70
420;DHT22;42600;54.408;13.016;2024-02-21T00:56:12;7.60;92.70
420;DHT22;42600;54.408;13.016;2024-02-21T00:58:39;7.60;92.70
420;DHT22;42600;54.408;13.016;2024-02-21T01:01:07;7.60;92.70
420;DHT22;42600;54.408;13.016;2024-02-21T01:03:33;7.60;92.70
420;DHT22;42600;54.408;13.016;2024-02-21T01:06:00;7.60;92.70
420;DHT22;42600;54.408;13.016;2024-02-21T01:08:27;7.60;92.70
420;DHT22;42600;54.408;13.016;2024-02-21T01:10:53;7.60;92.70
420;DHT22;42600;54.408;13.016;2024-02-21T01:13:20;7.60;92.70
420;DHT22;42600;54.408;13.016;2024-02-21T01:15:46;7.60;92.70
420;DHT22;42600;54.408;13.016;2024-02-21T01:18:14;7.60;92.70
420;DHT22;42600;54.408;13.016;2024-02-21T01:20:41;7.60;92.70
420;DHT22;42600;54.408;13.016;2024-02-21T01:23:07;7.60;92.70
420;DHT22;42600;54.408;13.016;2024-02-21T01:25:34;7.60;92.70
420;DHT22;42600;54.408;13.016;2024-02-21T01:28:01;7.60;92.70
420;DHT22;42600;54.408;13.016;2024-02-21T01:30:27;7.60;92.70
420;DHT22;42600;54.408;13.016;2024-02-21T01:32:54;7.60;92.70
420;DHT22;42600;54.408;13.016;2024-02-21T01:35:21;7.60;92.70
420;DHT22;42600;54.408;13.016;2024-02-21T01:37:48;7.60;92.70
420;DHT22;42600;54.408;13.016;2024-02-21T01:40:17;7.60;92.70
420;DHT22;42600;54.408;13.016;2024-02-21T01:42:44;7.60;92.70
420;DHT22;42600;54.408;13.016;2024-02-21T01:45:10;7.60;92.70
420;DHT22;42600;54.408;13.016;2024-02-21T01:47:37;7.60;92.70
420;DHT22;42600;54.408;13.016;2024-02-21T01:50:04;7.60;92.70
420;DHT22;42600;54.408;13.016;2024-02-21T01:52:33;7.60;92.70
420;DHT22;42600;54.408;13.016;2024-02-21T01:55:01;7.70;92.70
420;DHT22;42600;54.408;13.016;2024-02-21T01:57:28;7.70;92.70
420;DHT22;42600;54.408;13.016;2024-02-21T01:59:55;7.70;92.70
420;DHT22;42600;54.408;13.016;2024-02-21T02:02:21;7.70;92.70
420;DHT22;42600;54.408;13.016;2024-02-21T02:04:49;7.70;92.70
420;DHT22;42600;54.408;13.016;2024-02-21T02:07:15;7.70;92.70
420;DHT22;42600;54.408;13.016;2024-02-21T02:09:43;7.70;92.70
420;DHT22;42600;54.408;13.016;2024-02-21T02:12:10;7.70;92.70
420;DHT22;42600;54.408;13.016;2024-02-21T02:14:36;7.70;92.70
420;DHT22;42600;54.408;13.016;2024-02-21T02:17:03;7.70;92.70
420;DHT22;42600;54.408;13.016;2024-02-21T02:19:30;7.70;92.70
420;DHT22;42600;54.408;13.016;2024-02-21T02:22:02;7.70;92.70
420;DHT22;42600;54.408;13.016;2024-02-21T02:24:31;7.70;92.70
420;DHT22;42600;54.408;13.016;2024-02-21T02:26:58;7.70;92.70
420;DHT22;42600;54.408;13.016;2024-02-21T02:29:24;7.70;92.70
420;DHT22;42600;54.408;13.016;2024-02-21T02:31:51;7.70;92.70
420;DHT22;42600;54.408;13.016;2024-02-21T02:34:18;7.70;92.70
420;DHT22;42600;54.408;13.016;2024-02-21T02:36:44;7.70;92.70
420;DHT22;42600;54.408;13.016;2024-02-21T02:39:11;7.70;92.70
420;DHT22;42600;54.408;13.016;2024-02-21T02:41:39;7.70;92.70
420;DHT22;42600;54.408;13.016;2024-02-21T02:44:06;7.70;92.70
420;DHT22;42600;54.408;13.016;2024-02-21T02:46:32;7.70;92.70
420;DHT22;42600;54.408;13.016;2024-02-21T02:48:59;7.80;92.70
420;DHT22;42600;54.408;13.016;2024-02-21T02:51:26;7.80;92.70
420;DHT22;42600;54.408;13.016;2024-02-21T02:53:52;7.80;92.70
420;DHT22;42600;54.408;13.016;2024-02-21T02:56:19;7.80;92.70
420;DHT22;42600;54.408;13.016;2024-02-21T02:58:47;7.80;92.70
420;DHT22;42600;54.408;13.016;2024-02-21T03:01:14;7.80;92.70
420;DHT22;42600;54.408;13.016;2024-02-21T03:03:40;7.80;92.70
420;DHT22;42600;54.408;13.016;2024-02-21T03:06:07;7.80;92.70
420;DHT22;42600;54.408;13.016;2024-02-21T03:08:33;7.80;92.70
420;DHT22;42600;54.408;13.016;2024-02-21T03:11:00;7.80;92.70
420;DHT22;42600;54.408;13.016;2024-02-21T03:13:26;7.80;92.70
420;DHT22;42600;54.408;13.016;2024-02-21T03:15:54;7.80;92.70
420;DHT22;42600;54.408;13.016;2024-02-21T03:18:21;7.80;92.70
420;DHT22;42600;54.408;13.016;2024-02-21T03:20:48;7.80;92.70
420;DHT22;42600;54.408;13.016;2024-02-21T03:23:14;7.90;92.70
420;DHT22;42600;54.408;13.016;2024-02-21T03:25:41;7.90;92.70
420;DHT22;42600;54.408;13.016;2024-02-21T03:28:07;7.90;92.70
420;DHT22;42600;54.408;13.016;2024-02-21T03:30:34;7.90;92.70
420;DHT22;42600;54.408;13.016;2024-02-21T03:33:02;7.90;92.70
420;DHT22;42600;54.408;13.016;2024-02-21T03:35:29;7.90;92.70
420;DHT22;42600;54.408;13.016;2024-02-21T03:37:56;7.90;92.70
420;DHT22;42600;54.408;13.016;2024-02-21T03:40:22;7.90;92.70
420;DHT22;42600;54.408;13.016;2024-02-21T03:42:49;7.90;92.70
420;DHT22;42600;54.408;13.016;2024-02-21T03:45:15;7.90;92.70
420;DHT22;42600;54.408;13.016;2024-02-21T03:47:42;7.90;92.70
420;DHT22;42600;54.408;13.016;2024-02-21T03:50:10;7.90;92.70
420;DHT22;42600;54.408;13.016;2024-02-21T03:52:37;7.90;92.70
420;DHT22;42600;54.408;13.016;2024-02-21T03:55:04;7.90;92.70
420;DHT22;42600;54.408;13.016;2024-02-21T03:57:30;7.90;92.70
420;DHT22;42600;54.408;13.016;2024-02-21T03:59:57;7.90;92.70
420;DHT22;42600;54.408;13.016;2024-02-21T04:02:23;7.90;92.70
420;DHT22;42600;54.408;13.016;2024-02-21T04:04:50;7.90;92.70
420;DHT22;42600;54.408;13.016;2024-02-21T04:07:18;7.90;92.70
420;DHT22;42600;54.408;13.016;2024-02-21T04:09:44;7.90;92.70
420;DHT22;42600;54.408;13.016;2024-02-21T04:12:11;8.00;92.70
420;DHT22;42600;54.408;13.016;2024-02-21T04:14:37;8.00;92.70
420;DHT22;42600;54.408;13.016;2024-02-21T04:17:05;8.00;92.70
420;DHT22;42600;54.408;13.016;2024-02-21T04:19:31;8.00;92.70
420;DHT22;42600;54.408;13.016;2024-02-21T04:21:59;8.00;92.70
420;DHT22;42600;54.408;13.016;2024-02-21T04:24:27;8.00;92.70
420;DHT22;42600;54.408;13.016;2024-02-21T04:26:53;8.00;92.70
420;DHT22;42600;54.408;13.016;2024-02-21T04:29:20;8.00;92.70
420;DHT22;42600;54.408;13.016;2024-02-21T04:31:46;8.00;92.70
420;DHT22;42600;54.408;13.016;2024-02-21T04:34:13;8.00;92.70
420;DHT22;42600;54.408;13.016;2024-02-21T04:36:39;8.00;92.70
420;DHT22;42600;54.408;13.016;2024-02-21T04:39:06;8.00;92.70
420;DHT22;42600;54.408;13.016;2024-02-21T04:41:34;8.00;92.70
420;DHT22;42600;54.408;13.016;2024-02-21T04:44:00;8.10;92.70
420;DHT22;42600;54.408;13.016;2024-02-21T04:46:29;8.10;92.70
420;DHT22;42600;54.408;13.016;2024-02-21T04:48:55;8.10;92.70
420;DHT22;42600;54.408;13.016;2024-02-21T04:51:22;8.10;92.70
420;DHT22;42600;54.408;13.016;2024-02-21T04:53:48;8.10;92.70
420;DHT22;42600;54.408;13.016;2024-02-21T04:56:15;8.10;92.70
420;DHT22;42600;54.408;13.016;2024-02-21T04:58:43;8.10;92.70
420;DHT22;42600;54.408;13.016;2024-02-21T05:01:09;8.10;92.70
420;DHT22;42600;54.408;13.016;2024-02-21T05:03:36;8.10;92.70
420;DHT22;42600;54.408;13.016;2024-02-21T05:06:03;8.10;92.70
420;DHT22;42600;54.408;13.016;2024-02-21T05:08:29;8.10;92.70
420;DHT22;42600;54.408;13.016;2024-02-21T05:10:56;8.20;92.70
420;DHT22;42600;54.408;13.016;2024-02-21T05:13:22;8.20;92.70
420;DHT22;42600;54.408;13.016;2024-02-21T05:15:50;8.20;92.70
420;DHT22;42600;54.408;13.016;2024-02-21T05:18:17;8.20;92.70
420;DHT22;42600;54.408;13.016;2024-02-21T05:20:44;8.20;92.70
420;DHT22;42600;54.408;13.016;2024-02-21T05:23:11;8.20;92.70
420;DHT22;42600;54.408;13.016;2024-02-21T05:25:38;8.20;92.70
420;DHT22;42600;54.408;13.016;2024-02-21T05:28:05;8.20;92.70
420;DHT22;42600;54.408;13.016;2024-02-21T05:30:31;8.20;92.70
420;DHT22;42600;54.408;13.016;2024-02-21T05:33:04;8.20;92.70
420;DHT22;42600;54.408;13.016;2024-02-21T05:35:30;8.20;92.70
420;DHT22;42600;54.408;13.016;2024-02-21T05:37:57;8.20;92.70
420;DHT22;42600;54.408;13.016;2024-02-21T05:40:24;8.20;92.70
420;DHT22;42600;54.408;13.016;2024-02-21T05:42:51;8.20;92.70
420;DHT22;42600;54.408;13.016;2024-02-21T05:45:18;8.20;92.70
420;DHT22;42600;54.408;13.016;2024-02-21T05:47:45;8.20;92.70
420;DHT22;42600;54.408;13.016;2024-02-21T05:50:13;8.20;92.70
420;DHT22;42600;54.408;13.016;2024-02-21T05:52:39;8.20;92.70
420;DHT22;42600;54.408;13.016;2024-02-21T05:55:06;8.30;92.70
420;DHT22;42600;54.408;13.016;2024-02-21T05:57:34;8.20;92.70
420;DHT22;42600;54.408;13.016;2024-02-21T06:00:02;8.30;92.70
420;DHT22;42600;54.408;13.016;2024-02-21T06:02:30;8.30;92.70
420;DHT22;42600;54.408;13.016;2024-02-21T06:04:57;8.30;92.70
420;DHT22;42600;54.408;13.016;2024-02-21T06:07:24;8.30;92.70
420;DHT22;42600;54.408;13.016;2024-02-21T06:09:51;8.30;92.70
420;DHT22;42600;54.408;13.016;2024-02-21T06:12:18;8.30;92.70
420;DHT22;42600;54.408;13.016;2024-02-21T06:14:44;8.30;92.70
420;DHT22;42600;54.408;13.016;2024-02-21T06:17:11;8.30;92.70
420;DHT22;42600;54.408;13.016;2024-02-21T06:19:40;8.30;92.70
420;DHT22;42600;54.408;13.016;2024-02-21T06:22:07;8.20;92.70
420;DHT22;42600;54.408;13.016;2024-02-21T06:24:35;8.20;92.70
420;DHT22;42600;54.408;13.016;2024-02-21T06:27:02;8.20;92.70
420;DHT22;42600;54.408;13.016;2024-02-21T06:29:29;8.20;92.70
420;DHT22;42600;54.408;13.016;2024-02-21T06:31:56;8.20;92.70
420;DHT22;42600;54.408;13.016;2024-02-21T06:34:22;8.20;92.70
420;DHT22;42600;54.408;13.016;2024-02-21T06:36:49;8.10;92.70
420;DHT22;42600;54.408;13.016;2024-02-21T06:39:16;8.10;92.70
420;DHT22;42600;54.408;13.016;2024-02-21T06:41:44;8.10;92.70
420;DHT22;42600;54.408;13.016;2024-02-21T06:44:10;8.10;92.70
420;DHT22;42600;54.408;13.016;2024-02-21T06:46:37;8.10;92.70
420;DHT22;42600;54.408;13.016;2024-02-21T06:49:04;8.00;92.70
420;DHT22;42600;54.408;13.016;2024-02-21T06:51:30;8.00;92.70
420;DHT22;42600;54.408;13.016;2024-02-21T06:53:57;8.00;92.70
420;DHT22;42600;54.408;13.016;2024-02-21T06:56:24;8.00;92.70
420;DHT22;42600;54.408;13.016;2024-02-21T06:58:55;8.10;92.70
420;DHT22;42600;54.408;13.016;2024-02-21T07:01:22;8.00;92.70
420;DHT22;42600;54.408;13.016;2024-02-21T07:03:48;8.00;92.70
420;DHT22;42600;54.408;13.016;2024-02-21T07:06:15;8.00;92.70
420;DHT22;42600;54.408;13.016;2024-02-21T07:08:41;8.00;92.70
420;DHT22;42600;54.408;13.016;2024-02-21T07:11:08;8.00;92.70
420;DHT22;42600;54.408;13.016;2024-02-21T07:13:35;7.90;92.70
420;DHT22;42600;54.408;13.016;2024-02-21T07:16:03;7.90;92.70
420;DHT22;42600;54.408;13.016;2024-02-21T07:18:30;7.90;92.70
420;DHT22;42600;54.408;13.016;2024-02-21T07:20:56;7.90;92.70
420;DHT22;42600;54.408;13.016;2024-02-21T07:23:23;7.90;92.70
420;DHT22;42600;54.408;13.016;2024-02-21T07:25:50;7.90;92.70
420;DHT22;42600;54.408;13.016;2024-02-21T07:28:17;7.90;92.70
420;DHT22;42600;54.408;13.016;2024-02-21T07:30:43;7.90;92.70
420;DHT22;42600;54.408;13.016;2024-02-21T07:33:11;7.90;92.70
420;DHT22;42600;54.408;13.016;2024-02-21T07:35:38;7.90;92.70
420;DHT22;42600;54.408;13.016;2024-02-21T07:38:06;7.90;92.70
420;DHT22;42600;54.408;13.016;2024-02-21T07:40:34;7.90;92.70
420;DHT22;42600;54.408;13.016;2024-02-21T07:43:00;7.90;92.70
420;DHT22;42600;54.408;13.016;2024-02-21T07:45:27;8.00;92.70
420;DHT22;42600;54.408;13.016;2024-02-21T07:47:53;8.00;92.70
420;DHT22;42600;54.408;13.016;2024-02-21T07:50:21;8.10;92.70
420;DHT22;42600;54.408;13.016;2024-02-21T07:52:48;8.10;92.70
420;DHT22;42600;54.408;13.016;2024-02-21T07:55:15;8.20;92.70
420;DHT22;42600;54.408;13.016;2024-02-21T07:57:41;8.20;92.70
420;DHT22;42600;54.408;13.016;2024-02-21T08:00:08;8.30;92.70
420;DHT22;42600;54.408;13.016;2024-02-21T08:02:40;8.30;92.70
420;DHT22;42600;54.408;13.016;2024-02-21T08:05:08;8.30;92.70
420;DHT22;42600;54.408;13.016;2024-02-21T08:07:36;8.40;92.70
420;DHT22;42600;54.408;13.016;2024-02-21T08:10:03;8.40;92.70
420;DHT22;42600;54.408;13.016;2024-02-21T08:12:30;8.50;92.70
420;DHT22;42600;54.408;13.016;2024-02-21T08:14:58;8.50;92.70
420;DHT22;42600;54.408;13.016;2024-02-21T08:17:24;8.60;92.70
420;DHT22;42600;54.408;13.016;2024-02-21T08:19:51;8.60;92.70
420;DHT22;42600;54.408;13.016;2024-02-21T08:22:17;8.70;92.70
420;DHT22;42600;54.408;13.016;2024-02-21T08:24:45;8.70;92.70
420;DHT22;42600;54.408;13.016;2024-02-21T08:27:12;8.70;92.70
420;DHT22;42600;54.408;13.016;2024-02-21T08:29:39;8.70;92.70
420;DHT22;42600;54.408;13.016;2024-02-21T08:32:05;8.80;92.70
420;DHT22;42600;54.408;13.016;2024-02-21T08:34:32;8.80;92.70
420;DHT22;42600;54.408;13.016;2024-02-21T08:37:00;8.90;92.70
420;DHT22;42600;54.408;13.016;2024-02-21T08:39:26;8.90;92.70
420;DHT22;42600;54.408;13.016;2024-02-21T08:41:55;9.00;92.70
420;DHT22;42600;54.408;13.016;2024-02-21T08:44:22;9.00;92.70
420;DHT22;42600;54.408;13.016;2024-02-21T08:46:49;9.00;92.70
420;DHT22;42600;54.408;13.016;2024-02-21T08:49:16;9.10;92.70
420;DHT22;42600;54.408;13.016;2024-02-21T08:51:42;9.10;92.70
420;DHT22;42600;54.408;13.016;2024-02-21T08:54:09;9.10;92.70
420;DHT22;42600;54.408;13.016;2024-02-21T08:56:36;9.10;92.70
420;DHT22;42600;54.408;13.016;2024-02-21T08:59:04;9.00;92.70
420;DHT22;42600;54.408;13.016;2024-02-21T09:01:30;9.00;92.70
420;DHT22;42600;54.408;13.016;2024-02-21T09:03:57;9.10;92.70
420;DHT22;42600;54.408;13.016;2024-02-21T09:06:23;9.10;92.70
420;DHT22;42600;54.408;13.016;2024-02-21T09:08:50;9.10;92.70
420;DHT22;42600;54.408;13.016;2024-02-21T09:11:16;9.00;92.70
420;DHT22;42600;54.408;13.016;2024-02-21T09:13:43;9.10;92.70
420;DHT22;42600;54.408;13.016;2024-02-21T09:16:11;9.10;92.70
420;DHT22;42600;54.408;13.016;2024-02-21T09:18:37;9.10;92.70
420;DHT22;42600;54.408;13.016;2024-02-21T09:21:04;9.00;92.70
420;DHT22;42600;54.408;13.016;2024-02-21T09:23:31;9.00;92.70
420;DHT22;42600;54.408;13.016;2024-02-21T09:25:58;8.90;92.70
420;DHT22;42600;54.408;13.016;2024-02-21T09:28:26;8.90;92.70
420;DHT22;42600;54.408;13.016;2024-02-21T09:30:52;9.00;92.70
420;DHT22;42600;54.408;13.016;2024-02-21T09:33:20;9.00;92.70
420;DHT22;42600;54.408;13.016;2024-02-21T09:35:47;9.00;92.70
420;DHT22;42600;54.408;13.016;2024-02-21T09:38:14;9.00;92.70
420;DHT22;42600;54.408;13.016;2024-02-21T09:40:40;9.00;92.70
420;DHT22;42600;54.408;13.016;2024-02-21T09:43:08;9.00;92.70
420;DHT22;42600;54.408;13.016;2024-02-21T09:45:34;9.00;92.70
420;DHT22;42600;54.408;13.016;2024-02-21T09:48:22;9.00;92.70
420;DHT22;42600;54.408;13.016;2024-02-21T09:50:53;9.00;92.70
420;DHT22;42600;54.408;13.016;2024-02-21T09:53:22;9.10;92.70
420;DHT22;42600;54.408;13.016;2024-02-21T09:55:50;9.10;92.70
420;DHT22;42600;54.408;13.016;2024-02-21T09:58:18;9.10;92.70
420;DHT22;42600;54.408;13.016;2024-02-21T10:00:44;9.10;92.70
420;DHT22;42600;54.408;13.016;2024-02-21T10:03:11;9.10;92.70
420;DHT22;42600;54.408;13.016;2024-02-21T10:05:47;9.10;92.70
420;DHT22;42600;54.408;13.016;2024-02-21T10:08:15;9.10;92.70
420;DHT22;42600;54.408;13.016;2024-02-21T10:10:43;9.20;92.70
420;DHT22;42600;54.408;13.016;2024-02-21T10:13:10;9.20;92.70
420;DHT22;42600;54.408;13.016;2024-02-21T10:15:37;9.20;92.70
420;DHT22;42600;54.408;13.016;2024-02-21T10:18:04;9.30;92.70
420;DHT22;42600;54.408;13.016;2024-02-21T10:20:32;9.30;92.70
420;DHT22;42600;54.408;13.016;2024-02-21T10:23:04;9.30;92.70
420;DHT22;42600;54.408;13.016;2024-02-21T10:25:33;9.30;92.70
420;DHT22;42600;54.408;13.016;2024-02-21T10:28:01;9.40;92.70
420;DHT22;42600;54.408;13.016;2024-02-21T10:30:28;9.40;92.70
420;DHT22;42600;54.408;13.016;2024-02-21T10:32:54;9.40;92.70
420;DHT22;42600;54.408;13.016;2024-02-21T10:35:27;9.40;92.70
420;DHT22;42600;54.408;13.016;2024-02-21T10:37:55;9.50;92.70
420;DHT22;42600;54.408;13.016;2024-02-21T10:40:24;9.50;92.70
420;DHT22;42600;54.408;13.016;2024-02-21T10:42:55;9.50;92.70
420;DHT22;42600;54.408;13.016;2024-02-21T10:45:24;9.50;92.70
420;DHT22;42600;54.408;13.016;2024-02-21T10:47:56;9.50;92.70
420;DHT22;42600;54.408;13.016;2024-02-21T10:50:30;9.60;92.70
420;DHT22;42600;54.408;13.016;2024-02-21T10:53:06;9.60;92.70
420;DHT22;42600;54.408;13.016;2024-02-21T10:55:39;9.60;92.70
420;DHT22;42600;54.408;13.016;2024-02-21T10:58:09;9.70;92.70
420;DHT22;42600;54.408;13.016;2024-02-21T11:00:37;9.70;92.70
420;DHT22;42600;54.408;13.016;2024-02-21T11:03:04;9.70;92.70
420;DHT22;42600;54.408;13.016;2024-02-21T11:05:32;9.70;92.70
420;DHT22;42600;54.408;13.016;2024-02-21T11:07:59;9.60;92.70
420;DHT22;42600;54.408;13.016;2024-02-21T11:10:26;9.60;92.70
420;DHT22;42600;54.408;13.016;2024-02-21T11:13:05;9.70;92.70
420;DHT22;42600;54.408;13.016;2024-02-21T11:15:32;9.60;92.70
420;DHT22;42600;54.408;13.016;2024-02-21T11:17:59;9.70;92.70
420;DHT22;42600;54.408;13.016;2024-02-21T11:20:32;9.60;92.70
420;DHT22;42600;54.408;13.016;2024-02-21T11:22:59;9.60;92.70
420;DHT22;42600;54.408;13.016;2024-02-21T11:25:27;9.70;92.70
420;DHT22;42600;54.408;13.016;2024-02-21T11:28:00;9.70;92.70
420;DHT22;42600;54.408;13.016;2024-02-21T11:30:27;9.70;92.70
420;DHT22;42600;54.408;13.016;2024-02-21T11:33:00;9.70;92.70
420;DHT22;42600;54.408;13.016;2024-02-21T11:35:31;9.70;92.70
420;DHT22;42600;54.408;13.016;2024-02-21T11:38:08;9.70;92.70
420;DHT22;42600;54.408;13.016;2024-02-21T11:40:35;9.80;92.70
420;DHT22;42600;54.408;13.016;2024-02-21T11:43:03;9.80;92.70
420;DHT22;42600;54.408;13.016;2024-02-21T11:45:30;9.90;92.70
420;DHT22;42600;54.408;13.016;2024-02-21T11:47:57;9.90;92.70
420;DHT22;42600;54.408;13.016;2024-02-21T11:50:25;9.90;92.70
420;DHT22;42600;54.408;13.016;2024-02-21T11:52:54;9.90;92.70
420;DHT22;42600;54.408;13.016;2024-02-21T11:55:21;9.90;92.70
420;DHT22;42600;54.408;13.016;2024-02-21T11:57:48;9.90;92.70
420;DHT22;42600;54.408;13.016;2024-02-21T12:00:18;9.90;92.70
420;DHT22;42600;54.408;13.016;2024-02-21T12:02:45;10.00;92.70
420;DHT22;42600;54.408;13.016;2024-02-21T12:05:12;10.00;92.70
420;DHT22;42600;54.408;13.016;2024-02-21T12:07:40;10.00;92.70
420;DHT22;42600;54.408;13.016;2024-02-21T12:10:08;10.00;92.70
420;DHT22;42600;54.408;13.016;2024-02-21T12:12:35;10.00;92.70
420;DHT22;42600;54.408;13.016;2024-02-21T12:15:03;10.00;92.70
420;DHT22;42600;54.408;13.016;2024-02-21T12:17:32;10.00;92.70
420;DHT22;42600;54.408;13.016;2024-02-21T12:19:59;10.00;92.70
420;DHT22;42600;54.408;13.016;2024-02-21T12:22:26;10.00;92.70
420;DHT22;42600;54.408;13.016;2024-02-21T12:24:53;10.00;92.70
420;DHT22;42600;54.408;13.016;2024-02-21T12:27:20;10.00;92.70
420;DHT22;42600;54.408;13.016;2024-02-21T12:29:47;10.00;92.70
420;DHT22;42600;54.408;13.016;2024-02-21T12:32:14;10.00;92.70
420;DHT22;42600;54.408;13.016;2024-02-21T12:34:42;10.00;92.70
420;DHT22;42600;54.408;13.016;2024-02-21T12:37:10;10.00;92.70
420;DHT22;42600;54.408;13.016;2024-02-21T12:39:38;10.00;92.70
420;DHT22;42600;54.408;13.016;2024-02-21T12:42:05;10.00;92.70
420;DHT22;42600;54.408;13.016;2024-02-21T12:44:31;10.00;92.70
420;DHT22;42600;54.408;13.016;2024-02-21T12:46:59;10.00;92.60
420;DHT22;42600;54.408;13.016;2024-02-21T12:49:25;10.00;92.70
420;DHT22;42600;54.408;13.016;2024-02-21T12:51:56;10.00;92.70
420;DHT22;42600;54.408;13.016;2024-02-21T12:54:22;10.00;92.70
420;DHT22;42600;54.408;13.016;2024-02-21T12:56:49;10.00;92.50
420;DHT22;42600;54.408;13.016;2024-02-21T12:59:16;10.00;92.50
420;DHT22;42600;54.408;13.016;2024-02-21T13:01:42;10.00;92.50
420;DHT22;42600;54.408;13.016;2024-02-21T13:04:09;10.00;92.30
420;DHT22;42600;54.408;13.016;2024-02-21T13:06:37;10.00;92.70
420;DHT22;42600;54.408;13.016;2024-02-21T13:09:05;10.10;92.70
420;DHT22;42600;54.408;13.016;2024-02-21T13:11:34;10.10;92.70
420;DHT22;42600;54.408;13.016;2024-02-21T13:14:00;10.10;92.70
420;DHT22;42600;54.408;13.016;2024-02-21T13:16:27;10.10;92.70
420;DHT22;42600;54.408;13.016;2024-02-21T13:18:53;10.20;92.70
420;DHT22;42600;54.408;13.016;2024-02-21T13:21:20;10.20;92.70
420;DHT22;42600;54.408;13.016;2024-02-21T13:23:48;10.20;92.70
420;DHT22;42600;54.408;13.016;2024-02-21T13:26:16;10.20;92.70
420;DHT22;42600;54.408;13.016;2024-02-21T13:28:43;10.20;92.70
420;DHT22;42600;54.408;13.016;2024-02-21T13:31:10;10.20;92.70
420;DHT22;42600;54.408;13.016;2024-02-21T13:33:36;10.20;92.70
420;DHT22;42600;54.408;13.016;2024-02-21T13:36:04;10.20;92.70
420;DHT22;42600;54.408;13.016;2024-02-21T13:38:31;10.20;92.70
420;DHT22;42600;54.408;13.016;2024-02-21T13:40:57;10.20;92.70
420;DHT22;42600;54.408;13.016;2024-02-21T13:43:27;10.20;92.70
420;DHT22;42600;54.408;13.016;2024-02-21T13:45:56;10.20;92.70
420;DHT22;42600;54.408;13.016;2024-02-21T13:48:23;10.10;92.70
420;DHT22;42600;54.408;13.016;2024-02-21T13:50:50;10.10;92.70
420;DHT22;42600;54.408;13.016;2024-02-21T13:53:17;10.10;92.70
420;DHT22;42600;54.408;13.016;2024-02-21T13:55:44;10.10;92.70
420;DHT22;42600;54.408;13.016;2024-02-21T13:58:10;10.00;92.70
420;DHT22;42600;54.408;13.016;2024-02-21T14:00:38;10.00;92.70
420;DHT22;42600;54.408;13.016;2024-02-21T14:03:05;10.00;92.70
420;DHT22;42600;54.408;13.016;2024-02-21T14:05:32;10.00;92.70
420;DHT22;42600;54.408;13.016;2024-02-21T14:07:58;10.00;92.70
420;DHT22;42600;54.408;13.016;2024-02-21T14:10:25;9.90;92.70
420;DHT22;42600;54.408;13.016;2024-02-21T14:12:51;10.00;92.70
420;DHT22;42600;54.408;13.016;2024-02-21T14:15:18;10.00;92.70
420;DHT22;42600;54.408;13.016;2024-02-21T14:17:46;10.00;92.70
420;DHT22;42600;54.408;13.016;2024-02-21T14:20:13;10.00;92.70
420;DHT22;42600;54.408;13.016;2024-02-21T14:22:40;10.00;92.70
420;DHT22;42600;54.408;13.016;2024-02-21T14:25:08;10.10;92.70
420;DHT22;42600;54.408;13.016;2024-02-21T14:27:34;10.00;92.70
420;DHT22;42600;54.408;13.016;2024-02-21T14:30:02;10.00;92.70
420;DHT22;42600;54.408;13.016;2024-02-21T14:32:28;10.00;92.70
420;DHT22;42600;54.408;13.016;2024-02-21T14:34:56;10.00;92.70
420;DHT22;42600;54.408;13.016;2024-02-21T14:37:23;10.00;92.70
420;DHT22;42600;54.408;13.016;2024-02-21T14:39:50;10.00;92.70
420;DHT22;42600;54.408;13.016;2024-02-21T14:42:16;10.00;92.70
420;DHT22;42600;54.408;13.016;2024-02-21T14:44:44;10.00;92.70
420;DHT22;42600;54.408;13.016;2024-02-21T14:47:10;10.00;92.70
420;DHT22;42600;54.408;13.016;2024-02-21T14:49:37;9.90;92.70
420;DHT22;42600;54.408;13.016;2024-02-21T14:52:05;9.90;92.70
420;DHT22;42600;54.408;13.016;2024-02-21T14:54:32;9.90;92.70
420;DHT22;42600;54.408;13.016;2024-02-21T14:56:59;9.90;92.70
420;DHT22;42600;54.408;13.016;2024-02-21T14:59:26;9.90;92.70
420;DHT22;42600;54.408;13.016;2024-02-21T15:01:52;9.90;92.70
420;DHT22;42600;54.408;13.016;2024-02-21T15:04:19;9.90;92.70
420;DHT22;42600;54.408;13.016;2024-02-21T15:06:46;9.90;92.70
420;DHT22;42600;54.408;13.016;2024-02-21T15:09:15;9.90;92.70
420;DHT22;42600;54.408;13.016;2024-02-21T15:11:42;9.80;92.70
420;DHT22;42600;54.408;13.016;2024-02-21T15:14:09;9.80;92.70
420;DHT22;42600;54.408;13.016;2024-02-21T15:16:36;9.90;92.70
420;DHT22;42600;54.408;13.016;2024-02-21T15:19:03;9.90;92.70
420;DHT22;42600;54.408;13.016;2024-02-21T15:21:29;9.90;92.70
420;DHT22;42600;54.408;13.016;2024-02-21T15:23:56;9.90;92.70
420;DHT22;42600;54.408;13.016;2024-02-21T15:26:25;9.90;92.70
420;DHT22;42600;54.408;13.016;2024-02-21T15:28:51;9.80;92.70
420;DHT22;42600;54.408;13.016;2024-02-21T15:31:21;9.80;92.70
420;DHT22;42600;54.408;13.016;2024-02-21T15:33:48;9.80;92.70
420;DHT22;42600;54.408;13.016;2024-02-21T15:36:15;9.80;92.70
420;DHT22;42600;54.408;13.016;2024-02-21T15:38:42;9.80;92.70
420;DHT22;42600;54.408;13.016;2024-02-21T15:41:11;9.90;92.70
420;DHT22;42600;54.408;13.016;2024-02-21T15:43:39;9.80;92.70
420;DHT22;42600;54.408;13.016;2024-02-21T15:46:06;9.80;92.70
420;DHT22;42600;54.408;13.016;2024-02-21T15:48:32;9.80;92.70
420;DHT22;42600;54.408;13.016;2024-02-21T15:51:00;9.80;92.70
420;DHT22;42600;54.408;13.016;2024-02-21T15:53:29;9.80;92.70
420;DHT22;42600;54.408;13.016;2024-02-21T15:55:56;9.80;92.70
420;DHT22;42600;54.408;13.016;2024-02-21T15:58:22;9.70;92.70
420;DHT22;42600;54.408;13.016;2024-02-21T16:00:51;9.70;92.70